Time;durP1;ratioP1;P1;durP2;ratioP2;P2;SDS_P1;SDS_P2;PMS_P1;PMS_P2;Temp;Humidity;BMP_temperature;BMP_pressure;BME280_temperature;BME280_humidity;BME280_pressure;Samples;Min_cycle;Max_cycle;Signal;HPM_P1;HPM_P2
2021/01/27 00:01:48;;;;;;;7.27;3.67;;;3.70;99.90;;;;;;5052283;28;20230;-65
2021/01/27 00:04:15;;;;;;;5.60;3.30;;;3.60;99.90;;;;;;5052140;28;20806;-63
2021/01/27 00:06:41;;;;;;;5.67;3.07;;;3.60;99.90;;;;;;5052695;28;20202;-64
2021/01/27 00:09:08;;;;;;;5.50;2.90;;;3.50;99.90;;;;;;5052709;28;20670;-64
2021/01/27 00:11:34;;;;;;;5.50;3.10;;;3.40;99.90;;;;;;5053139;28;20222;-64
2021/01/27 00:14:00;;;;;;;5.23;3.13;;;3.40;99.90;;;;;;5052684;28;20209;-64
2021/01/27 00:16:26;;;;;;;4.53;3.20;;;3.30;99.90;;;;;;5053075;28;20590;-64
2021/01/27 00:18:52;;;;;;;6.93;3.73;;;3.30;99.90;;;;;;5053324;28;20202;-64
2021/01/27 00:21:19;;;;;;;7.30;4.10;;;3.20;99.90;;;;;;5052915;28;20649;-65
2021/01/27 00:23:45;;;;;;;5.13;3.37;;;3.20;99.90;;;;;;5051958;28;20213;-65
2021/01/27 00:26:11;;;;;;;6.63;3.27;;;3.10;99.90;;;;;;5052149;28;20209;-64
2021/01/27 00:28:38;;;;;;;3.63;2.80;;;3.00;99.90;;;;;;5052286;28;20202;-64
2021/01/27 00:31:04;;;;;;;7.67;3.13;;;2.90;99.90;;;;;;5051770;28;20731;-63
2021/01/27 00:33:30;;;;;;;4.63;2.83;;;2.80;99.90;;;;;;5051504;28;20287;-64
2021/01/27 00:35:56;;;;;;;5.03;3.00;;;2.80;99.90;;;;;;5051835;28;20209;-64
2021/01/27 00:38:26;;;;;;;5.33;3.47;;;2.90;99.90;;;;;;5051230;28;20216;-64
2021/01/27 00:40:54;;;;;;;4.10;3.10;;;2.80;99.90;;;;;;5052081;28;20602;-64
2021/01/27 00:43:20;;;;;;;6.03;3.13;;;2.80;99.90;;;;;;5051740;28;20311;-63
2021/01/27 00:45:48;;;;;;;4.17;2.80;;;2.90;99.90;;;;;;5051418;28;20213;-64
2021/01/27 00:48:14;;;;;;;5.17;3.47;;;3.00;99.90;;;;;;5051810;28;20213;-64
2021/01/27 00:50:40;;;;;;;5.77;4.00;;;3.00;99.90;;;;;;5051576;28;20222;-64
2021/01/27 00:53:07;;;;;;;4.33;3.07;;;3.10;99.90;;;;;;5051558;28;20233;-65
2021/01/27 00:55:34;;;;;;;4.97;3.63;;;3.10;99.90;;;;;;5051588;28;20256;-64
2021/01/27 00:58:01;;;;;;;4.77;3.57;;;3.20;99.90;;;;;;5051489;28;20205;-64
2021/01/27 01:00:30;;;;;;;4.50;3.40;;;3.20;99.90;;;;;;5052016;28;20205;-64
2021/01/27 01:02:56;;;;;;;4.63;3.30;;;3.20;99.90;;;;;;5051786;28;20228;-63
2021/01/27 01:05:26;;;;;;;4.27;3.20;;;3.20;99.90;;;;;;5051749;28;20213;-64
2021/01/27 01:07:52;;;;;;;6.40;3.97;;;3.20;99.90;;;;;;5052155;28;20213;-64
2021/01/27 01:10:24;;;;;;;6.07;3.60;;;3.10;99.90;;;;;;5051829;28;20233;-64
2021/01/27 01:12:51;;;;;;;5.10;3.57;;;3.00;99.90;;;;;;5056042;28;20226;-64
2021/01/27 01:15:18;;;;;;;6.03;3.50;;;2.90;99.90;;;;;;5055925;28;20209;-64
2021/01/27 01:17:45;;;;;;;3.60;3.07;;;2.90;99.90;;;;;;5055687;28;20202;-64
2021/01/27 01:20:14;;;;;;;4.50;3.43;;;2.90;99.90;;;;;;5055986;28;20206;-64
2021/01/27 01:22:45;;;;;;;5.83;3.40;;;2.90;99.90;;;;;;5056197;28;20257;-64
2021/01/27 01:25:12;;;;;;;4.97;3.53;;;3.00;99.90;;;;;;5057108;28;20209;-63
2021/01/27 01:27:40;;;;;;;5.40;3.70;;;3.00;99.90;;;;;;5058464;28;20214;-64
2021/01/27 01:30:10;;;;;;;4.87;3.20;;;3.10;99.90;;;;;;5059280;28;20322;-63
2021/01/27 01:32:36;;;;;;;6.17;3.53;;;3.20;99.90;;;;;;5060472;28;20251;-63
2021/01/27 01:35:03;;;;;;;5.40;3.43;;;3.20;99.90;;;;;;5055275;28;20581;-64
2021/01/27 01:37:29;;;;;;;5.80;3.70;;;3.30;99.90;;;;;;5055255;28;20681;-63
2021/01/27 01:39:55;;;;;;;4.63;3.67;;;3.40;99.90;;;;;;5054942;28;20201;-64
2021/01/27 01:42:21;;;;;;;5.87;4.00;;;3.40;99.90;;;;;;5054870;28;20240;-63
2021/01/27 01:44:47;;;;;;;5.17;3.67;;;3.40;99.90;;;;;;5055361;28;20692;-64
2021/01/27 01:47:14;;;;;;;5.87;3.53;;;3.40;99.90;;;;;;5055596;28;20212;-63
2021/01/27 01:49:41;;;;;;;5.43;3.77;;;3.30;99.90;;;;;;5056102;28;20229;-63
2021/01/27 01:52:08;;;;;;;7.43;3.87;;;3.30;99.90;;;;;;5056272;28;20226;-65
2021/01/27 01:54:39;;;;;;;7.57;4.10;;;3.20;99.90;;;;;;5057594;28;20209;-64
2021/01/27 01:57:09;;;;;;;5.70;4.00;;;3.10;99.90;;;;;;5059261;28;20217;-64
2021/01/27 01:59:38;;;;;;;6.83;4.10;;;3.00;99.90;;;;;;5057541;28;20662;-64
2021/01/27 02:02:07;;;;;;;6.87;4.30;;;2.80;99.90;;;;;;5058207;28;20308;-64
2021/01/27 02:04:40;;;;;;;5.73;4.20;;;2.70;99.90;;;;;;5055767;28;20697;-63
2021/01/27 02:07:06;;;;;;;6.33;4.03;;;2.60;99.90;;;;;;5056290;28;20197;-64
2021/01/27 02:09:33;;;;;;;6.13;4.07;;;2.40;99.90;;;;;;5055280;28;20222;-64
2021/01/27 02:12:24;;;;;;;4.87;4.00;;;2.50;99.90;;;;;;5054876;28;20233;-63
2021/01/27 02:15:09;;;;;;;4.90;3.90;;;2.50;99.90;;;;;;5055611;28;20209;-63
2021/01/27 02:17:43;;;;;;;6.70;4.30;;;2.60;99.90;;;;;;5055380;28;20205;-64
2021/01/27 02:20:41;;;;;;;8.80;4.00;;;2.70;99.90;;;;;;5055081;28;20572;-64
2021/01/27 02:23:57;;;;;;;6.70;4.10;;;2.70;99.90;;;;;;5055656;28;20275;-64
2021/01/27 02:26:45;;;;;;;9.63;4.27;;;2.80;99.90;;;;;;5056462;28;20217;-65
2021/01/27 02:29:36;;;;;;;8.73;4.53;;;2.80;99.90;;;;;;5046951;28;20209;-64
2021/01/27 02:32:24;;;;;;;6.50;4.07;;;2.90;99.90;;;;;;5055126;28;20230;-64
2021/01/27 02:35:02;;;;;;;7.43;4.83;;;2.90;99.90;;;;;;5055866;28;20669;-64
2021/01/27 02:37:33;;;;;;;4.83;4.03;;;3.00;99.90;;;;;;5056426;28;20212;-65
2021/01/27 02:40:04;;;;;;;4.90;4.10;;;3.00;99.90;;;;;;5054889;28;20216;-64
2021/01/27 02:42:35;;;;;;;9.60;4.53;;;2.90;99.90;;;;;;5061316;22;20622;-60
2021/01/27 02:45:08;;;;;;;5.70;3.90;;;2.90;99.90;;;;;;5032863;28;20210;-60
2021/01/27 02:47:39;;;;;;;6.47;4.00;;;3.00;99.90;;;;;;5032709;28;20207;-60
2021/01/27 02:50:11;;;;;;;6.50;4.00;;;3.20;99.90;;;;;;5032812;28;20233;-60
2021/01/27 02:52:45;;;;;;;8.47;4.00;;;3.20;99.90;;;;;;5032425;28;20713;-61
2021/01/27 02:55:14;;;;;;;5.07;4.10;;;3.30;99.90;;;;;;5032704;28;20213;-60
2021/01/27 02:57:47;;;;;;;10.23;4.37;;;3.30;99.90;;;;;;5032469;28;20243;-59
2021/01/27 03:00:20;;;;;;;6.40;3.60;;;3.30;99.90;;;;;;5032500;28;20202;-60
2021/01/27 03:02:51;;;;;;;4.73;3.37;;;3.30;99.90;;;;;;5032656;28;20277;-60
2021/01/27 03:05:21;;;;;;;4.63;3.77;;;3.30;99.90;;;;;;5032520;28;20206;-60
2021/01/27 03:07:51;;;;;;;5.10;3.53;;;3.10;99.90;;;;;;5032476;28;20210;-60
2021/01/27 03:10:22;;;;;;;8.10;3.93;;;3.10;99.90;;;;;;5032425;28;20226;-60
2021/01/27 03:12:49;;;;;;;7.93;4.37;;;3.20;99.90;;;;;;5032598;28;20667;-60
2021/01/27 03:15:16;;;;;;;5.40;3.67;;;3.20;99.90;;;;;;5032287;28;20602;-58
2021/01/27 03:17:43;;;;;;;4.67;3.50;;;3.10;99.90;;;;;;5032779;28;20211;-59
2021/01/27 03:20:16;;;;;;;5.30;3.30;;;3.10;99.90;;;;;;5032401;28;20755;-60
2021/01/27 03:22:46;;;;;;;6.07;3.70;;;3.10;99.90;;;;;;5032738;28;20233;-59
2021/01/27 03:25:16;;;;;;;4.80;3.70;;;3.10;99.90;;;;;;5032089;28;20481;-59
2021/01/27 03:27:53;;;;;;;6.63;3.57;;;3.20;99.90;;;;;;5032077;28;20210;-59
2021/01/27 03:30:19;;;;;;;5.03;3.87;;;3.30;99.90;;;;;;5032018;28;20276;-58
2021/01/27 03:32:52;;;;;;;4.93;3.90;;;3.30;99.90;;;;;;5031881;28;20234;-58
2021/01/27 03:35:28;;;;;;;4.60;3.50;;;3.30;99.90;;;;;;5031277;28;20260;-59
2021/01/27 03:37:59;;;;;;;7.23;3.93;;;3.30;99.90;;;;;;5031914;28;20209;-58
2021/01/27 03:40:26;;;;;;;5.40;3.80;;;3.30;99.90;;;;;;5031961;28;20202;-58
2021/01/27 03:42:59;;;;;;;6.47;4.17;;;3.30;99.90;;;;;;5031674;28;20241;-59
2021/01/27 03:45:30;;;;;;;5.87;3.43;;;3.30;99.90;;;;;;5031701;28;20210;-59
2021/01/27 03:48:04;;;;;;;6.27;4.33;;;3.30;99.90;;;;;;5031479;28;20213;-59
2021/01/27 03:50:30;;;;;;;8.43;4.10;;;3.30;99.90;;;;;;5031754;28;20279;-58
2021/01/27 03:53:00;;;;;;;6.80;4.00;;;3.30;99.90;;;;;;5031606;28;20229;-58
2021/01/27 03:55:33;;;;;;;4.90;3.77;;;3.30;99.90;;;;;;5031696;28;20206;-58
2021/01/27 03:58:04;;;;;;;7.33;3.87;;;3.30;99.90;;;;;;5031578;28;20206;-58
2021/01/27 04:00:32;;;;;;;7.20;3.90;;;3.30;99.90;;;;;;5031541;28;20205;-58
2021/01/27 04:03:08;;;;;;;5.43;4.13;;;3.30;99.90;;;;;;5031580;28;20233;-59
2021/01/27 04:05:35;;;;;;;6.77;4.13;;;3.30;99.90;;;;;;5031481;28;20210;-59
2021/01/27 04:08:02;;;;;;;6.67;3.90;;;3.30;99.90;;;;;;5031719;28;20356;-60
2021/01/27 04:10:28;;;;;;;7.70;3.67;;;3.30;99.90;;;;;;5031262;28;20595;-60
2021/01/27 04:12:54;;;;;;;7.23;3.90;;;3.30;99.90;;;;;;5031115;28;20341;-60
2021/01/27 04:15:20;;;;;;;10.17;6.93;;;3.30;99.90;;;;;;5031237;28;20214;-60
2021/01/27 04:17:47;;;;;;;7.07;4.47;;;3.30;99.90;;;;;;5031564;28;20207;-59
2021/01/27 04:20:14;;;;;;;4.80;3.70;;;3.30;99.90;;;;;;5031625;28;20209;-60
2021/01/27 04:22:40;;;;;;;4.83;3.10;;;3.30;99.90;;;;;;5031394;28;20229;-59
2021/01/27 04:25:08;;;;;;;5.43;3.20;;;3.30;99.90;;;;;;5031173;28;20202;-59
2021/01/27 04:27:34;;;;;;;5.60;3.70;;;3.30;99.90;;;;;;5030994;28;20206;-59
2021/01/27 04:30:02;;;;;;;5.63;3.23;;;3.30;99.90;;;;;;5031184;28;20222;-59
2021/01/27 04:32:28;;;;;;;6.83;4.10;;;3.30;99.90;;;;;;5031342;28;20284;-59
2021/01/27 04:34:54;;;;;;;5.97;4.30;;;3.30;99.90;;;;;;5031054;28;20213;-59
2021/01/27 04:37:20;;;;;;;6.67;4.37;;;3.20;99.90;;;;;;5031084;28;20210;-61
2021/01/27 04:39:47;;;;;;;4.67;3.87;;;3.00;99.90;;;;;;5030986;28;20206;-59
2021/01/27 04:42:14;;;;;;;5.93;3.40;;;2.70;99.90;;;;;;5030994;28;20237;-59
2021/01/27 04:44:40;;;;;;;6.23;3.70;;;2.40;99.90;;;;;;5031536;28;20686;-60
2021/01/27 04:47:15;;;;;;;5.27;3.40;;;2.30;99.90;;;;;;5035402;28;20232;-58
2021/01/27 04:49:44;;;;;;;4.87;3.87;;;2.20;99.90;;;;;;5035244;28;20209;-59
2021/01/27 04:52:17;;;;;;;7.23;4.23;;;2.10;99.90;;;;;;5034999;28;20226;-59
2021/01/27 04:55:02;;;;;;;8.03;4.30;;;2.00;99.90;;;;;;5034700;28;20297;-62
2021/01/27 04:57:49;;;;;;;6.47;4.67;;;2.00;99.90;;;;;;5035183;28;20217;-59
2021/01/27 05:00:35;;;;;;;5.03;4.07;;;1.90;99.90;;;;;;5035489;28;20213;-59
2021/01/27 05:03:20;;;;;;;5.97;3.90;;;1.90;99.90;;;;;;5034784;28;20226;-59
2021/01/27 05:05:52;;;;;;;6.67;4.37;;;2.00;99.90;;;;;;5034582;28;20665;-58
2021/01/27 05:08:24;;;;;;;8.50;4.40;;;1.90;99.90;;;;;;5034426;28;20615;-58
2021/01/27 05:10:54;;;;;;;6.80;4.37;;;2.10;99.90;;;;;;5034454;28;20218;-59
2021/01/27 05:13:30;;;;;;;8.43;4.83;;;2.20;99.90;;;;;;5034438;28;20226;-59
2021/01/27 05:15:57;;;;;;;8.80;5.17;;;2.30;99.90;;;;;;5034760;28;20206;-59
2021/01/27 05:18:23;;;;;;;11.47;7.23;;;2.40;99.90;;;;;;5034497;28;20217;-59
2021/01/27 05:20:50;;;;;;;5.63;4.23;;;2.50;99.90;;;;;;5034399;28;20202;-58
2021/01/27 05:23:18;;;;;;;4.73;3.10;;;2.60;99.90;;;;;;5034844;28;20272;-58
2021/01/27 05:25:47;;;;;;;6.43;3.30;;;2.70;99.90;;;;;;5034122;28;20289;-59
2021/01/27 05:28:18;;;;;;;4.83;3.40;;;2.90;99.90;;;;;;5034831;28;20296;-60
2021/01/27 05:30:51;;;;;;;3.43;2.80;;;2.90;99.90;;;;;;5034553;28;20268;-58
2021/01/27 05:33:18;;;;;;;5.43;3.37;;;3.00;99.90;;;;;;5034393;28;20226;-60
2021/01/27 05:35:44;;;;;;;6.40;3.63;;;3.10;99.90;;;;;;5034121;28;20213;-59
2021/01/27 05:38:34;;;;;;;7.23;3.43;;;3.20;99.90;;;;;;5033933;28;20666;-59
2021/01/27 05:41:08;;;;;;;5.13;3.37;;;3.20;99.90;;;;;;5018991;28;20229;-60
2021/01/27 05:43:37;;;;;;;5.90;3.33;;;3.30;99.90;;;;;;5033861;28;20234;-60
2021/01/27 05:46:14;;;;;;;13.13;6.77;;;3.30;99.90;;;;;;5034067;28;20218;-60
2021/01/27 05:48:44;;;;;;;19.67;9.90;;;3.20;99.90;;;;;;5033634;28;20675;-60
2021/01/27 05:51:14;;;;;;;11.87;7.47;;;3.20;99.90;;;;;;5034046;28;20222;-60
2021/01/27 05:53:40;;;;;;;7.67;5.23;;;3.10;99.90;;;;;;5033568;28;20284;-60
2021/01/27 05:56:13;;;;;;;6.57;5.00;;;2.80;99.90;;;;;;5033937;28;20260;-60
2021/01/27 05:58:43;;;;;;;7.93;5.23;;;2.60;99.90;;;;;;5033449;28;20241;-60
2021/01/27 06:01:31;;;;;;;4.40;3.63;;;2.40;99.90;;;;;;5034180;28;20203;-60
2021/01/27 06:04:01;;;;;;;5.50;4.47;;;2.40;99.90;;;;;;5033795;28;20229;-61
2021/01/27 06:06:31;;;;;;;6.57;4.43;;;2.20;99.90;;;;;;5033859;28;20208;-60
2021/01/27 06:08:59;;;;;;;5.70;4.00;;;2.20;99.90;;;;;;5033497;28;20298;-60
2021/01/27 06:11:26;;;;;;;6.73;4.50;;;2.10;99.90;;;;;;5033365;28;20227;-60
2021/01/27 06:14:07;;;;;;;5.67;4.27;;;2.10;99.90;;;;;;5032944;28;20230;-60
2021/01/27 06:16:41;;;;;;;6.47;4.40;;;2.00;99.90;;;;;;5033819;28;20300;-60
2021/01/27 06:19:15;;;;;;;7.07;4.33;;;2.00;99.90;;;;;;5033651;28;20210;-60
2021/01/27 06:22:06;;;;;;;7.47;4.57;;;2.10;99.90;;;;;;5033394;28;20213;-60
2021/01/27 06:25:02;;;;;;;6.50;4.60;;;2.10;99.90;;;;;;5033526;28;20210;-60
2021/01/27 06:27:57;;;;;;;5.70;4.27;;;2.10;99.90;;;;;;5033323;28;20206;-59
2021/01/27 06:30:52;;;;;;;9.07;4.90;;;2.00;99.90;;;;;;5033144;28;20839;-60
2021/01/27 06:33:53;;;;;;;9.77;4.97;;;2.10;99.90;;;;;;5033355;28;20313;-60
2021/01/27 06:36:36;;;;;;;6.30;4.10;;;2.20;99.90;;;;;;5033174;28;20688;-60
2021/01/27 06:39:13;;;;;;;5.77;4.40;;;2.20;99.90;;;;;;5033132;28;20575;-59
2021/01/27 06:41:55;;;;;;;6.63;3.93;;;2.20;99.90;;;;;;5033089;28;20228;-60
2021/01/27 06:44:41;;;;;;;6.60;4.33;;;2.30;99.90;;;;;;5033054;28;20206;-59
2021/01/27 06:47:31;;;;;;;7.27;5.10;;;2.20;99.90;;;;;;5032869;28;20206;-60
2021/01/27 06:50:19;;;;;;;8.27;4.20;;;2.10;99.90;;;;;;5032767;28;20210;-60
2021/01/27 06:53:13;;;;;;;8.73;4.87;;;2.20;99.90;;;;;;5032795;28;20230;-60
2021/01/27 06:56:03;;;;;;;7.47;4.53;;;2.30;99.90;;;;;;5032473;28;20597;-60
2021/01/27 06:58:59;;;;;;;6.40;4.77;;;2.50;99.90;;;;;;5032867;28;20245;-61
2021/01/27 07:01:49;;;;;;;6.83;4.90;;;2.50;99.90;;;;;;5032947;28;20213;-61
2021/01/27 07:04:51;;;;;;;3.93;3.37;;;2.30;99.90;;;;;;5032407;28;20256;-60
2021/01/27 07:07:42;;;;;;;6.57;3.90;;;2.30;99.90;;;;;;5017302;28;20216;-60
2021/01/27 07:10:28;;;;;;;7.13;3.80;;;2.30;99.90;;;;;;5031806;28;20380;-59
2021/01/27 07:13:03;;;;;;;4.97;3.90;;;2.40;99.90;;;;;;5032761;28;20587;-59
2021/01/27 07:15:51;;;;;;;5.83;3.70;;;2.60;99.90;;;;;;5032503;28;20221;-60
2021/01/27 07:19:03;;;;;;;5.50;4.40;;;2.80;99.90;;;;;;5032115;28;20206;-59
2021/01/27 07:21:35;;;;;;;7.47;4.50;;;2.90;99.90;;;;;;5032430;28;20198;-60
2021/01/27 07:24:09;;;;;;;6.73;3.70;;;3.00;99.90;;;;;;5032105;28;20240;-60
2021/01/27 07:26:41;;;;;;;6.37;3.40;;;3.00;99.90;;;;;;5032126;28;20603;-59
2021/01/27 07:29:12;;;;;;;7.90;3.60;;;3.20;99.90;;;;;;5032055;28;20218;-60
2021/01/27 07:31:45;;;;;;;5.17;4.03;;;3.40;99.90;;;;;;5032130;28;20229;-60
2021/01/27 07:34:15;;;;;;;6.70;3.47;;;3.60;99.90;;;;;;5032534;28;20211;-59
2021/01/27 07:36:50;;;;;;;3.50;2.57;;;3.60;99.90;;;;;;5032750;28;20215;-59
2021/01/27 07:39:26;;;;;;;4.07;3.17;;;3.70;99.90;;;;;;5031967;28;20212;-59
2021/01/27 07:42:02;;;;;;;4.77;2.40;;;3.80;99.90;;;;;;5031774;28;20210;-59
2021/01/27 07:44:30;;;;;;;5.40;2.60;;;3.90;99.90;;;;;;5032100;28;20239;-59
2021/01/27 07:47:07;;;;;;;4.40;3.10;;;4.10;99.90;;;;;;5031988;28;20206;-59
2021/01/27 07:49:50;;;;;;;6.43;2.93;;;4.30;99.90;;;;;;5031690;28;20275;-58
2021/01/27 07:52:23;;;;;;;5.13;2.67;;;4.50;99.90;;;;;;5031775;28;20226;-60
2021/01/27 07:54:58;;;;;;;7.00;2.90;;;4.60;99.90;;;;;;5031523;28;20202;-60
2021/01/27 07:57:32;;;;;;;6.80;2.87;;;4.70;99.90;;;;;;5031626;28;20212;-60
2021/01/27 08:00:07;;;;;;;6.67;3.03;;;4.90;99.90;;;;;;5031381;28;20586;-60
2021/01/27 08:02:37;;;;;;;4.30;2.87;;;4.90;99.90;;;;;;5031677;28;20230;-61
2021/01/27 08:05:08;;;;;;;4.83;3.00;;;4.90;99.90;;;;;;5031630;28;20265;-59
2021/01/27 08:07:38;;;;;;;4.07;2.53;;;4.90;99.90;;;;;;5031501;28;20233;-60
2021/01/27 08:10:13;;;;;;;3.80;2.80;;;4.90;99.90;;;;;;5031116;28;20682;-61
2021/01/27 08:12:42;;;;;;;6.47;3.10;;;5.00;99.90;;;;;;5031306;28;20657;-60
2021/01/27 08:15:11;;;;;;;4.60;2.93;;;5.10;99.90;;;;;;5031300;28;20206;-60
2021/01/27 08:18:01;;;;;;;4.13;3.00;;;5.30;99.90;;;;;;5031527;28;20217;-62
2021/01/27 08:20:29;;;;;;;4.83;3.00;;;5.30;99.90;;;;;;5031157;28;20228;-61
2021/01/27 08:22:57;;;;;;;3.93;2.80;;;5.40;99.90;;;;;;5031117;28;20226;-60
2021/01/27 08:25:51;;;;;;;6.00;3.13;;;5.40;99.90;;;;;;5031286;28;20206;-61
2021/01/27 08:28:22;;;;;;;5.00;3.30;;;5.40;99.90;;;;;;5031085;28;20210;-61
2021/01/27 08:31:18;;;;;;;7.57;3.13;;;5.40;99.90;;;;;;5030879;28;20226;-60
2021/01/27 08:33:56;;;;;;;4.77;3.40;;;5.40;99.90;;;;;;5030984;28;20269;-61
2021/01/27 08:36:39;;;;;;;6.07;3.50;;;5.30;99.90;;;;;;5031250;28;20202;-62
2021/01/27 08:39:11;;;;;;;4.27;3.03;;;5.30;99.90;;;;;;5030643;28;20268;-61
2021/01/27 08:41:42;;;;;;;6.23;3.20;;;5.30;99.90;;;;;;5030911;28;20202;-61
2021/01/27 08:44:23;;;;;;;4.77;3.23;;;5.30;99.90;;;;;;5031810;28;20578;-61
2021/01/27 08:46:52;;;;;;;4.40;3.63;;;5.30;99.90;;;;;;5031544;28;20210;-61
2021/01/27 08:49:47;;;;;;;7.13;4.40;;;5.30;99.90;;;;;;5032426;28;20213;-60
2021/01/27 08:52:51;;;;;;;6.73;5.30;;;5.40;99.90;;;;;;5031646;28;20233;-61
2021/01/27 08:55:38;;;;;;;5.93;3.43;;;5.40;99.90;;;;;;5032038;28;20212;-62
2021/01/27 08:58:24;;;;;;;6.07;2.80;;;5.40;99.90;;;;;;5031036;28;20214;-60
2021/01/27 09:00:52;;;;;;;5.20;3.30;;;5.40;99.90;;;;;;5030959;28;20301;-61
2021/01/27 09:03:51;;;;;;;4.77;3.30;;;5.40;99.90;;;;;;5030734;28;20229;-61
2021/01/27 09:06:26;;;;;;;6.07;3.83;;;5.60;99.90;;;;;;5030988;28;20210;-62
2021/01/27 09:08:55;;;;;;;5.67;3.90;;;5.60;99.90;;;;;;5030381;28;20205;-62
2021/01/27 09:11:22;;;;;;;5.40;4.07;;;5.50;99.90;;;;;;5030564;28;20230;-62
2021/01/27 09:13:49;;;;;;;5.73;3.80;;;5.60;99.90;;;;;;5030288;28;20602;-61
2021/01/27 09:16:18;;;;;;;5.70;4.17;;;5.50;99.90;;;;;;5031086;28;20222;-62
2021/01/27 09:18:54;;;;;;;10.50;4.20;;;5.60;99.90;;;;;;5030384;28;20225;-61
2021/01/27 09:21:22;;;;;;;4.43;3.20;;;5.70;99.90;;;;;;5030488;28;20206;-61
2021/01/27 09:24:00;;;;;;;4.63;3.43;;;5.70;99.90;;;;;;5030473;28;20222;-60
2021/01/27 09:26:37;;;;;;;5.93;3.50;;;5.70;99.90;;;;;;5030735;28;20206;-59
2021/01/27 09:29:11;;;;;;;4.47;2.90;;;5.80;99.90;;;;;;5030639;28;20206;-61
2021/01/27 09:31:37;;;;;;;4.33;3.00;;;5.80;99.90;;;;;;5030664;28;20229;-60
2021/01/27 09:34:20;;;;;;;3.13;2.70;;;5.70;99.90;;;;;;5034059;28;20217;-60
2021/01/27 09:36:47;;;;;;;4.63;2.77;;;5.80;99.90;;;;;;5034408;28;20209;-61
2021/01/27 09:39:13;;;;;;;4.07;3.23;;;6.00;99.90;;;;;;5034065;28;20252;-61
2021/01/27 09:41:43;;;;;;;3.63;3.10;;;6.10;99.90;;;;;;5034129;28;20248;-62
2021/01/27 09:44:30;;;;;;;4.27;3.30;;;6.20;99.90;;;;;;5034387;28;20287;-60
2021/01/27 09:46:57;;;;;;;4.40;3.50;;;6.30;99.90;;;;;;5034254;28;20206;-61
2021/01/27 09:49:23;;;;;;;4.80;3.27;;;6.40;99.90;;;;;;5034030;28;20457;-60
2021/01/27 09:51:53;;;;;;;4.27;3.13;;;6.50;99.90;;;;;;5034255;28;20233;-61
2021/01/27 09:54:22;;;;;;;8.03;3.50;;;6.40;99.90;;;;;;5033865;28;20633;-60
2021/01/27 09:56:51;;;;;;;6.37;3.70;;;6.50;99.90;;;;;;5034140;28;20574;-63
2021/01/27 09:59:20;;;;;;;8.03;4.17;;;6.40;99.90;;;;;;5033768;28;20310;-59
2021/01/27 10:01:48;;;;;;;3.00;2.70;;;6.40;99.90;;;;;;5033904;28;20214;-59
2021/01/27 10:04:17;;;;;;;4.60;3.77;;;6.20;99.90;;;;;;5033461;28;20644;-59
2021/01/27 10:06:47;;;;;;;3.10;2.77;;;6.10;99.90;;;;;;5033659;28;20590;-59
2021/01/27 10:09:18;;;;;;;6.93;3.53;;;6.20;99.90;;;;;;5033580;28;20206;-60
2021/01/27 10:11:46;;;;;;;3.87;3.17;;;6.30;99.90;;;;;;5033760;28;20234;-59
2021/01/27 10:14:15;;;;;;;5.83;3.10;;;6.40;99.90;;;;;;5033597;28;20206;-59
2021/01/27 10:16:54;;;;;;;5.43;3.23;;;6.50;99.90;;;;;;5033455;28;20688;-59
2021/01/27 10:19:26;;;;;;;4.53;3.80;;;6.50;99.90;;;;;;5033386;28;20215;-60
2021/01/27 10:21:55;;;;;;;3.40;3.03;;;6.70;99.90;;;;;;5033357;28;20646;-60
2021/01/27 10:24:42;;;;;;;4.87;3.20;;;6.80;99.90;;;;;;5033533;28;20261;-60
2021/01/27 10:27:08;;;;;;;5.50;3.17;;;7.00;99.90;;;;;;5033416;28;20521;-59
2021/01/27 10:29:36;;;;;;;4.10;2.80;;;7.00;99.90;;;;;;5033146;28;20206;-60
2021/01/27 10:32:35;;;;;;;3.13;2.77;;;6.90;99.90;;;;;;5033436;28;20284;-59
2021/01/27 10:35:24;;;;;;;3.27;2.60;;;7.00;99.90;;;;;;4971717;28;20264;-59
2021/01/27 10:37:51;;;;;;;3.50;2.10;;;7.00;99.90;;;;;;5028358;28;20207;-61
2021/01/27 10:40:25;;;;;;;2.50;2.30;;;7.00;99.90;;;;;;5032825;28;20217;-62
2021/01/27 10:42:54;;;;;;;2.53;1.90;;;6.90;99.90;;;;;;5032419;28;20242;-64
2021/01/27 10:45:36;;;;;;;3.47;1.97;;;7.00;99.90;;;;;;5032331;28;20646;-63
2021/01/27 10:48:12;;;;;;;4.37;2.33;;;7.10;99.90;;;;;;5032337;28;20205;-65
2021/01/27 10:50:41;;;;;;;2.60;2.20;;;7.30;99.90;;;;;;5032543;28;20226;-66
2021/01/27 10:53:10;;;;;;;3.30;2.00;;;7.30;99.90;;;;;;5032069;28;20263;-66
2021/01/27 10:55:37;;;;;;;3.47;2.33;;;7.30;99.90;;;;;;5032506;28;20210;-64
2021/01/27 10:58:06;;;;;;;2.67;2.13;;;7.30;99.90;;;;;;5032631;28;20210;-63
2021/01/27 11:00:32;;;;;;;2.43;2.03;;;7.20;99.90;;;;;;5032731;28;20261;-64
2021/01/27 11:02:58;;;;;;;3.03;2.23;;;7.10;99.90;;;;;;5032318;28;20291;-62
2021/01/27 11:05:27;;;;;;;2.50;2.00;;;6.80;99.90;;;;;;5032211;28;20728;-61
2021/01/27 11:07:53;;;;;;;3.40;2.23;;;6.80;99.90;;;;;;5032095;28;20202;-62
2021/01/27 11:10:20;;;;;;;3.40;2.67;;;6.80;99.90;;;;;;5032323;28;20235;-63
2021/01/27 11:12:47;;;;;;;3.00;2.50;;;6.90;99.90;;;;;;5032063;28;20748;-61
2021/01/27 11:15:13;;;;;;;3.83;2.50;;;7.10;99.90;;;;;;5032455;28;20213;-64
2021/01/27 11:17:39;;;;;;;4.33;2.67;;;7.10;99.90;;;;;;5032184;28;20399;-61
2021/01/27 11:20:07;;;;;;;2.67;2.37;;;7.20;99.90;;;;;;5031922;28;20202;-62
2021/01/27 11:22:34;;;;;;;3.37;2.70;;;7.20;99.90;;;;;;5032004;28;20580;-65
2021/01/27 11:25:01;;;;;;;2.87;2.20;;;7.20;99.90;;;;;;5031749;28;20698;-65
2021/01/27 11:27:27;;;;;;;5.90;2.60;;;7.20;99.90;;;;;;5033033;28;20403;-60
2021/01/27 11:29:53;;;;;;;3.30;2.80;;;7.20;99.90;;;;;;5031790;28;20260;-61
2021/01/27 11:32:19;;;;;;;3.90;2.87;;;7.20;99.90;;;;;;5027319;28;20230;-60
2021/01/27 11:34:45;;;;;;;3.10;2.53;;;7.10;99.90;;;;;;5011733;28;20210;-60
2021/01/27 11:37:12;;;;;;;3.80;2.30;;;7.00;99.90;;;;;;5012031;28;20214;-60
2021/01/27 11:39:39;;;;;;;3.57;2.40;;;6.90;99.90;;;;;;5011646;28;20683;-59
2021/01/27 11:42:05;;;;;;;2.60;2.37;;;6.80;99.90;;;;;;5011654;28;20265;-59
2021/01/27 11:44:32;;;;;;;2.40;2.10;;;6.80;99.90;;;;;;5011178;28;20214;-60
2021/01/27 11:46:58;;;;;;;2.57;2.27;;;6.80;99.90;;;;;;5011651;28;20620;-60
2021/01/27 11:49:24;;;;;;;4.77;2.40;;;6.80;99.90;;;;;;5011386;28;20210;-61
2021/01/27 11:51:50;;;;;;;2.63;2.10;;;6.70;99.90;;;;;;5011458;28;20233;-62
2021/01/27 11:54:16;;;;;;;2.80;2.30;;;6.70;99.90;;;;;;5011372;28;20615;-60
2021/01/27 11:56:44;;;;;;;2.17;1.87;;;6.70;99.90;;;;;;5011507;28;20210;-61
2021/01/27 11:59:10;;;;;;;2.87;2.03;;;6.80;99.90;;;;;;5011395;28;20249;-62
2021/01/27 12:01:37;;;;;;;3.03;2.40;;;6.80;99.90;;;;;;5011439;28;20207;-62
2021/01/27 12:04:03;;;;;;;2.40;2.20;;;6.80;99.90;;;;;;5011474;28;20207;-62
2021/01/27 12:06:30;;;;;;;3.17;1.90;;;6.70;99.90;;;;;;5011601;28;20277;-61
2021/01/27 12:08:56;;;;;;;2.53;1.90;;;6.80;99.90;;;;;;5011679;28;20207;-62
2021/01/27 12:11:22;;;;;;;2.47;1.97;;;6.90;99.90;;;;;;5011387;28;20244;-61
2021/01/27 12:13:49;;;;;;;2.27;1.80;;;6.60;99.90;;;;;;5011118;28;20639;-61
2021/01/27 12:16:16;;;;;;;5.17;2.17;;;6.70;99.90;;;;;;5011320;28;20210;-62
2021/01/27 12:18:42;;;;;;;2.17;1.73;;;6.90;99.90;;;;;;5011377;28;20230;-63
2021/01/27 12:21:09;;;;;;;3.90;1.90;;;7.10;99.90;;;;;;5011422;28;20211;-60
2021/01/27 12:23:35;;;;;;;3.03;1.60;;;7.20;99.80;;;;;;5011086;28;20263;-60
2021/01/27 12:26:02;;;;;;;2.20;1.50;;;7.40;99.80;;;;;;5011231;28;20601;-60
2021/01/27 12:28:28;;;;;;;1.90;1.60;;;7.60;99.50;;;;;;5010978;28;20245;-61
2021/01/27 12:30:55;;;;;;;2.70;2.27;;;7.80;99.30;;;;;;5010986;28;20227;-64
2021/01/27 12:33:22;;;;;;;2.67;1.40;;;7.90;99.40;;;;;;5012886;28;20231;-62
2021/01/27 12:35:48;;;;;;;3.70;1.70;;;8.30;98.80;;;;;;5014346;28;20203;-62
2021/01/27 12:38:15;;;;;;;1.60;1.40;;;8.60;98.10;;;;;;5011891;28;20207;-60
2021/01/27 12:40:41;;;;;;;2.57;1.83;;;8.70;97.50;;;;;;5010959;28;20210;-61
2021/01/27 12:43:07;;;;;;;2.63;1.63;;;8.80;97.40;;;;;;5010717;28;20234;-60
2021/01/27 12:45:33;;;;;;;2.07;1.63;;;8.60;97.00;;;;;;5010275;28;20729;-60
2021/01/27 12:48:00;;;;;;;3.00;1.87;;;8.50;97.30;;;;;;5010849;28;20211;-59
2021/01/27 12:50:27;;;;;;;2.77;2.07;;;8.50;97.40;;;;;;5010793;28;20265;-60
2021/01/27 12:52:54;;;;;;;1.80;1.33;;;8.20;97.60;;;;;;5010976;28;20226;-60
2021/01/27 12:55:21;;;;;;;3.13;1.67;;;8.20;97.90;;;;;;5010719;28;20213;-61
2021/01/27 12:57:47;;;;;;;1.70;1.40;;;8.20;97.90;;;;;;5010492;28;20210;-60
2021/01/27 13:00:17;;;;;;;2.63;2.10;;;8.30;97.80;;;;;;5010616;28;20210;-60
2021/01/27 13:02:43;;;;;;;4.60;1.80;;;8.20;97.90;;;;;;5011024;28;20230;-62
2021/01/27 13:05:12;;;;;;;3.23;2.93;;;8.30;98.30;;;;;;5010703;28;20207;-60
2021/01/27 13:07:38;;;;;;;2.50;1.53;;;8.20;97.80;;;;;;5014449;28;20209;-60
2021/01/27 13:10:08;;;;;;;2.53;1.60;;;8.10;97.70;;;;;;5014730;28;20211;-60
2021/01/27 13:12:35;;;;;;;1.80;1.53;;;7.80;98.00;;;;;;5014377;28;20234;-62
2021/01/27 13:15:01;;;;;;;3.30;1.50;;;7.80;98.40;;;;;;5014511;28;20211;-62
2021/01/27 13:17:27;;;;;;;3.20;1.80;;;7.70;98.40;;;;;;5014531;28;20581;-60
2021/01/27 13:19:54;;;;;;;2.17;1.80;;;7.60;98.60;;;;;;5014478;28;20298;-60
2021/01/27 13:22:20;;;;;;;4.10;1.63;;;7.50;98.80;;;;;;5014295;28;20498;-60
2021/01/27 13:24:47;;;;;;;4.63;1.70;;;7.20;99.00;;;;;;5014168;28;20589;-61